sensor_id;sensor_type;location;lat;lon;timestamp;temperature;humidity
46139;DHT22;32398;49.112;8.598;2023-04-28T00:00:44;13.90;74.40
46139;DHT22;32398;49.112;8.598;2023-04-28T00:03:11;13.90;74.40
46139;DHT22;32398;49.112;8.598;2023-04-28T00:05:38;13.90;74.60
46139;DHT22;32398;49.112;8.598;2023-04-28T00:08:05;13.90;74.70
46139;DHT22;32398;49.112;8.598;2023-04-28T00:10:32;13.90;74.80
46139;DHT22;32398;49.112;8.598;2023-04-28T00:12:59;13.90;75.00
46139;DHT22;32398;49.112;8.598;2023-04-28T00:15:25;13.90;75.20
46139;DHT22;32398;49.112;8.598;2023-04-28T00:17:53;13.80;75.20
46139;DHT22;32398;49.112;8.598;2023-04-28T00:20:19;13.90;75.30
46139;DHT22;32398;49.112;8.598;2023-04-28T00:22:46;13.80;75.20
46139;DHT22;32398;49.112;8.598;2023-04-28T00:25:13;13.80;75.20
46139;DHT22;32398;49.112;8.598;2023-04-28T00:27:40;13.80;75.30
46139;DHT22;32398;49.112;8.598;2023-04-28T00:30:07;13.80;75.40
46139;DHT22;32398;49.112;8.598;2023-04-28T00:32:33;13.80;75.50
46139;DHT22;32398;49.112;8.598;2023-04-28T00:35:02;13.80;75.70
46139;DHT22;32398;49.112;8.598;2023-04-28T00:37:29;13.70;75.70
46139;DHT22;32398;49.112;8.598;2023-04-28T00:39:55;13.70;75.80
46139;DHT22;32398;49.112;8.598;2023-04-28T00:42:22;13.70;76.10
46139;DHT22;32398;49.112;8.598;2023-04-28T00:44:48;13.70;76.20
46139;DHT22;32398;49.112;8.598;2023-04-28T00:47:15;13.70;76.20
46139;DHT22;32398;49.112;8.598;2023-04-28T00:49:42;13.70;76.30
46139;DHT22;32398;49.112;8.598;2023-04-28T00:52:11;13.70;76.50
46139;DHT22;32398;49.112;8.598;2023-04-28T00:54:37;13.70;76.60
46139;DHT22;32398;49.112;8.598;2023-04-28T00:57:04;13.60;76.70
46139;DHT22;32398;49.112;8.598;2023-04-28T00:59:31;13.70;77.10
46139;DHT22;32398;49.112;8.598;2023-04-28T01:01:57;13.60;77.20
46139;DHT22;32398;49.112;8.598;2023-04-28T01:04:25;13.60;77.30
46139;DHT22;32398;49.112;8.598;2023-04-28T01:06:52;13.60;77.50
46139;DHT22;32398;49.112;8.598;2023-04-28T01:09:20;13.60;77.70
46139;DHT22;32398;49.112;8.598;2023-04-28T01:11:47;13.60;78.20
46139;DHT22;32398;49.112;8.598;2023-04-28T01:14:13;13.60;78.50
46139;DHT22;32398;49.112;8.598;2023-04-28T01:16:40;13.60;78.70
46139;DHT22;32398;49.112;8.598;2023-04-28T01:19:07;13.60;79.00
46139;DHT22;32398;49.112;8.598;2023-04-28T01:21:33;13.50;79.20
46139;DHT22;32398;49.112;8.598;2023-04-28T01:24:01;13.50;79.40
46139;DHT22;32398;49.112;8.598;2023-04-28T01:26:28;13.50;79.70
46139;DHT22;32398;49.112;8.598;2023-04-28T01:28:54;13.40;79.70
46139;DHT22;32398;49.112;8.598;2023-04-28T01:31:21;13.40;79.90
46139;DHT22;32398;49.112;8.598;2023-04-28T01:33:47;13.40;80.00
46139;DHT22;32398;49.112;8.598;2023-04-28T01:36:14;13.40;80.00
46139;DHT22;32398;49.112;8.598;2023-04-28T01:38:40;13.40;80.20
46139;DHT22;32398;49.112;8.598;2023-04-28T01:41:08;13.40;80.30
46139;DHT22;32398;49.112;8.598;2023-04-28T01:43:35;13.40;80.50
46139;DHT22;32398;49.112;8.598;2023-04-28T01:46:01;13.40;80.50
46139;DHT22;32398;49.112;8.598;2023-04-28T01:48:28;13.30;80.50
46139;DHT22;32398;49.112;8.598;2023-04-28T01:50:54;13.30;80.60
46139;DHT22;32398;49.112;8.598;2023-04-28T01:53:21;13.30;80.70
46139;DHT22;32398;49.112;8.598;2023-04-28T01:55:47;13.30;80.80
46139;DHT22;32398;49.112;8.598;2023-04-28T01:58:15;13.30;81.00
46139;DHT22;32398;49.112;8.598;2023-04-28T02:00:42;13.30;81.20
46139;DHT22;32398;49.112;8.598;2023-04-28T02:03:08;13.20;81.20
46139;DHT22;32398;49.112;8.598;2023-04-28T02:05:35;13.20;81.30
46139;DHT22;32398;49.112;8.598;2023-04-28T02:08:02;13.20;81.50
46139;DHT22;32398;49.112;8.598;2023-04-28T02:10:28;13.20;81.60
46139;DHT22;32398;49.112;8.598;2023-04-28T02:12:55;13.20;81.70
46139;DHT22;32398;49.112;8.598;2023-04-28T02:15:23;13.20;81.90
46139;DHT22;32398;49.112;8.598;2023-04-28T02:17:49;13.20;82.10
46139;DHT22;32398;49.112;8.598;2023-04-28T02:20:16;13.10;82.20
46139;DHT22;32398;49.112;8.598;2023-04-28T02:22:42;13.20;82.50
46139;DHT22;32398;49.112;8.598;2023-04-28T02:25:09;13.10;82.50
46139;DHT22;32398;49.112;8.598;2023-04-28T02:27:35;13.10;82.70
46139;DHT22;32398;49.112;8.598;2023-04-28T02:30:02;13.10;82.80
46139;DHT22;32398;49.112;8.598;2023-04-28T02:32:31;13.10;83.00
46139;DHT22;32398;49.112;8.598;2023-04-28T02:34:57;13.10;83.20
46139;DHT22;32398;49.112;8.598;2023-04-28T02:37:24;13.10;83.40
46139;DHT22;32398;49.112;8.598;2023-04-28T02:39:50;13.00;83.60
46139;DHT22;32398;49.112;8.598;2023-04-28T02:42:17;13.00;83.80
46139;DHT22;32398;49.112;8.598;2023-04-28T02:44:44;13.00;84.10
46139;DHT22;32398;49.112;8.598;2023-04-28T02:47:10;13.00;84.20
46139;DHT22;32398;49.112;8.598;2023-04-28T02:49:38;13.00;84.50
46139;DHT22;32398;49.112;8.598;2023-04-28T02:52:05;13.00;84.70
46139;DHT22;32398;49.112;8.598;2023-04-28T02:54:31;13.00;85.00
46139;DHT22;32398;49.112;8.598;2023-04-28T02:56:59;12.90;85.10
46139;DHT22;32398;49.112;8.598;2023-04-28T02:59:28;12.90;85.30
46139;DHT22;32398;49.112;8.598;2023-04-28T03:01:54;12.90;85.50
46139;DHT22;32398;49.112;8.598;2023-04-28T03:04:21;12.90;85.70
46139;DHT22;32398;49.112;8.598;2023-04-28T03:06:49;12.90;86.00
46139;DHT22;32398;49.112;8.598;2023-04-28T03:09:15;12.90;86.10
46139;DHT22;32398;49.112;8.598;2023-04-28T03:11:42;12.90;86.20
46139;DHT22;32398;49.112;8.598;2023-04-28T03:14:08;12.80;86.20
46139;DHT22;32398;49.112;8.598;2023-04-28T03:16:35;12.80;86.30
46139;DHT22;32398;49.112;8.598;2023-04-28T03:19:01;12.90;86.40
46139;DHT22;32398;49.112;8.598;2023-04-28T03:21:28;12.80;86.40
46139;DHT22;32398;49.112;8.598;2023-04-28T03:23:56;12.80;86.30
46139;DHT22;32398;49.112;8.598;2023-04-28T03:26:22;12.80;86.30
46139;DHT22;32398;49.112;8.598;2023-04-28T03:28:49;12.80;86.30
46139;DHT22;32398;49.112;8.598;2023-04-28T03:31:16;12.80;86.30
46139;DHT22;32398;49.112;8.598;2023-04-28T03:33:42;12.80;86.40
46139;DHT22;32398;49.112;8.598;2023-04-28T03:36:11;12.80;86.40
46139;DHT22;32398;49.112;8.598;2023-04-28T03:38:37;12.70;86.40
46139;DHT22;32398;49.112;8.598;2023-04-28T03:41:05;12.80;86.50
46139;DHT22;32398;49.112;8.598;2023-04-28T03:43:32;12.80;86.70
46139;DHT22;32398;49.112;8.598;2023-04-28T03:45:59;12.70;86.70
46139;DHT22;32398;49.112;8.598;2023-04-28T03:48:26;12.70;86.70
46139;DHT22;32398;49.112;8.598;2023-04-28T03:50:53;12.70;86.80
46139;DHT22;32398;49.112;8.598;2023-04-28T03:53:19;12.70;86.90
46139;DHT22;32398;49.112;8.598;2023-04-28T03:55:46;12.70;87.00
46139;DHT22;32398;49.112;8.598;2023-04-28T03:58:13;12.70;87.10
46139;DHT22;32398;49.112;8.598;2023-04-28T04:00:40;12.70;87.20
46139;DHT22;32398;49.112;8.598;2023-04-28T04:03:07;12.70;87.30
46139;DHT22;32398;49.112;8.598;2023-04-28T04:05:33;12.70;87.40
46139;DHT22;32398;49.112;8.598;2023-04-28T04:08:00;12.70;87.60
46139;DHT22;32398;49.112;8.598;2023-04-28T04:10:26;12.70;87.60
46139;DHT22;32398;49.112;8.598;2023-04-28T04:12:53;12.70;87.70
46139;DHT22;32398;49.112;8.598;2023-04-28T04:15:20;12.60;87.70
46139;DHT22;32398;49.112;8.598;2023-04-28T04:17:47;12.60;87.70
46139;DHT22;32398;49.112;8.598;2023-04-28T04:20:14;12.60;87.70
46139;DHT22;32398;49.112;8.598;2023-04-28T04:22:40;12.60;87.70
46139;DHT22;32398;49.112;8.598;2023-04-28T04:25:07;12.60;87.70
46139;DHT22;32398;49.112;8.598;2023-04-28T04:27:33;12.60;87.80
46139;DHT22;32398;49.112;8.598;2023-04-28T04:30:00;12.60;87.80
46139;DHT22;32398;49.112;8.598;2023-04-28T04:32:27;12.60;87.80
46139;DHT22;32398;49.112;8.598;2023-04-28T04:34:54;12.60;87.90
46139;DHT22;32398;49.112;8.598;2023-04-28T04:37:21;12.60;88.00
46139;DHT22;32398;49.112;8.598;2023-04-28T04:39:48;12.60;88.00
46139;DHT22;32398;49.112;8.598;2023-04-28T04:42:14;12.60;88.00
46139;DHT22;32398;49.112;8.598;2023-04-28T04:44:41;12.60;88.10
46139;DHT22;32398;49.112;8.598;2023-04-28T04:47:07;12.60;88.30
46139;DHT22;32398;49.112;8.598;2023-04-28T04:49:35;12.60;88.30
46139;DHT22;32398;49.112;8.598;2023-04-28T04:52:02;12.60;88.40
46139;DHT22;32398;49.112;8.598;2023-04-28T04:54:30;12.60;88.60
46139;DHT22;32398;49.112;8.598;2023-04-28T04:56:57;12.60;88.80
46139;DHT22;32398;49.112;8.598;2023-04-28T04:59:24;12.60;89.00
46139;DHT22;32398;49.112;8.598;2023-04-28T05:01:50;12.60;89.10
46139;DHT22;32398;49.112;8.598;2023-04-28T05:04:17;12.50;89.20
46139;DHT22;32398;49.112;8.598;2023-04-28T05:06:44;12.50;89.40
46139;DHT22;32398;49.112;8.598;2023-04-28T05:09:11;12.60;89.40
46139;DHT22;32398;49.112;8.598;2023-04-28T05:11:38;12.60;89.50
46139;DHT22;32398;49.112;8.598;2023-04-28T05:14:04;12.50;89.50
46139;DHT22;32398;49.112;8.598;2023-04-28T05:16:31;12.50;89.60
46139;DHT22;32398;49.112;8.598;2023-04-28T05:18:57;12.50;89.70
46139;DHT22;32398;49.112;8.598;2023-04-28T05:21:24;12.50;89.70
46139;DHT22;32398;49.112;8.598;2023-04-28T05:23:52;12.50;89.70
46139;DHT22;32398;49.112;8.598;2023-04-28T05:26:19;12.50;89.90
46139;DHT22;32398;49.112;8.598;2023-04-28T05:28:45;12.50;89.90
46139;DHT22;32398;49.112;8.598;2023-04-28T05:31:12;12.50;89.90
46139;DHT22;32398;49.112;8.598;2023-04-28T05:33:38;12.50;89.90
46139;DHT22;32398;49.112;8.598;2023-04-28T05:36:05;12.50;89.80
46139;DHT22;32398;49.112;8.598;2023-04-28T05:38:32;12.50;89.80
46139;DHT22;32398;49.112;8.598;2023-04-28T05:41:00;12.60;89.90
46139;DHT22;32398;49.112;8.598;2023-04-28T05:43:27;12.60;89.90
46139;DHT22;32398;49.112;8.598;2023-04-28T05:45:53;12.60;89.80
46139;DHT22;32398;49.112;8.598;2023-04-28T05:48:20;12.60;89.60
46139;DHT22;32398;49.112;8.598;2023-04-28T05:50:46;12.60;89.60
46139;DHT22;32398;49.112;8.598;2023-04-28T05:53:13;12.60;89.80
46139;DHT22;32398;49.112;8.598;2023-04-28T05:55:39;12.60;90.00
46139;DHT22;32398;49.112;8.598;2023-04-28T05:58:07;12.60;90.00
46139;DHT22;32398;49.112;8.598;2023-04-28T06:00:34;12.60;90.00
46139;DHT22;32398;49.112;8.598;2023-04-28T06:03:00;12.60;89.90
46139;DHT22;32398;49.112;8.598;2023-04-28T06:05:27;12.60;89.80
46139;DHT22;32398;49.112;8.598;2023-04-28T06:07:53;12.60;89.90
46139;DHT22;32398;49.112;8.598;2023-04-28T06:10:20;12.60;90.10
46139;DHT22;32398;49.112;8.598;2023-04-28T06:12:47;12.60;90.20
46139;DHT22;32398;49.112;8.598;2023-04-28T06:15:15;12.60;90.40
46139;DHT22;32398;49.112;8.598;2023-04-28T06:17:41;12.60;90.40
46139;DHT22;32398;49.112;8.598;2023-04-28T06:20:08;12.60;90.40
46139;DHT22;32398;49.112;8.598;2023-04-28T06:22:37;12.60;90.50
46139;DHT22;32398;49.112;8.598;2023-04-28T06:25:04;12.60;90.50
46139;DHT22;32398;49.112;8.598;2023-04-28T06:27:31;12.60;90.50
46139;DHT22;32398;49.112;8.598;2023-04-28T06:29:58;12.60;90.40
46139;DHT22;32398;49.112;8.598;2023-04-28T06:32:25;12.60;90.40
46139;DHT22;32398;49.112;8.598;2023-04-28T06:34:52;12.60;90.30
46139;DHT22;32398;49.112;8.598;2023-04-28T06:37:19;12.60;90.20
46139;DHT22;32398;49.112;8.598;2023-04-28T06:39:45;12.60;90.20
46139;DHT22;32398;49.112;8.598;2023-04-28T06:42:12;12.60;90.10
46139;DHT22;32398;49.112;8.598;2023-04-28T06:44:42;12.60;90.00
46139;DHT22;32398;49.112;8.598;2023-04-28T06:47:09;12.60;90.00
46139;DHT22;32398;49.112;8.598;2023-04-28T06:49:37;12.60;90.00
46139;DHT22;32398;49.112;8.598;2023-04-28T06:52:03;12.60;90.00
46139;DHT22;32398;49.112;8.598;2023-04-28T06:54:32;12.60;89.90
46139;DHT22;32398;49.112;8.598;2023-04-28T06:56:58;12.60;89.70
46139;DHT22;32398;49.112;8.598;2023-04-28T06:59:25;12.60;89.70
46139;DHT22;32398;49.112;8.598;2023-04-28T07:01:51;12.60;89.60
46139;DHT22;32398;49.112;8.598;2023-04-28T07:04:18;12.60;89.50
46139;DHT22;32398;49.112;8.598;2023-04-28T07:06:46;12.60;89.40
46139;DHT22;32398;49.112;8.598;2023-04-28T07:09:12;12.60;89.50
46139;DHT22;32398;49.112;8.598;2023-04-28T07:11:40;12.60;89.90
46139;DHT22;32398;49.112;8.598;2023-04-28T07:14:06;12.60;90.00
46139;DHT22;32398;49.112;8.598;2023-04-28T07:16:33;12.60;90.10
46139;DHT22;32398;49.112;8.598;2023-04-28T07:19:00;12.60;90.10
46139;DHT22;32398;49.112;8.598;2023-04-28T07:21:26;12.60;90.30
46139;DHT22;32398;49.112;8.598;2023-04-28T07:23:54;12.60;90.40
46139;DHT22;32398;49.112;8.598;2023-04-28T07:26:21;12.60;90.50
46139;DHT22;32398;49.112;8.598;2023-04-28T07:28:48;12.60;90.60
46139;DHT22;32398;49.112;8.598;2023-04-28T07:31:14;12.60;90.60
46139;DHT22;32398;49.112;8.598;2023-04-28T07:33:41;12.60;90.60
46139;DHT22;32398;49.112;8.598;2023-04-28T07:36:07;12.60;90.70
46139;DHT22;32398;49.112;8.598;2023-04-28T07:38:34;12.60;90.70
46139;DHT22;32398;49.112;8.598;2023-04-28T07:41:02;12.60;90.80
46139;DHT22;32398;49.112;8.598;2023-04-28T07:43:29;12.50;90.80
46139;DHT22;32398;49.112;8.598;2023-04-28T07:45:55;12.60;90.80
46139;DHT22;32398;49.112;8.598;2023-04-28T07:48:22;12.60;91.00
46139;DHT22;32398;49.112;8.598;2023-04-28T07:50:48;12.60;91.10
46139;DHT22;32398;49.112;8.598;2023-04-28T07:53:15;12.50;91.30
46139;DHT22;32398;49.112;8.598;2023-04-28T07:55:42;12.60;91.40
46139;DHT22;32398;49.112;8.598;2023-04-28T07:58:11;12.50;91.30
46139;DHT22;32398;49.112;8.598;2023-04-28T08:00:38;12.50;91.30
46139;DHT22;32398;49.112;8.598;2023-04-28T08:03:04;12.50;91.40
46139;DHT22;32398;49.112;8.598;2023-04-28T08:05:31;12.50;91.40
46139;DHT22;32398;49.112;8.598;2023-04-28T08:07:57;12.50;91.40
46139;DHT22;32398;49.112;8.598;2023-04-28T08:10:24;12.60;91.40
46139;DHT22;32398;49.112;8.598;2023-04-28T08:12:52;12.60;91.40
46139;DHT22;32398;49.112;8.598;2023-04-28T08:15:19;12.50;91.40
46139;DHT22;32398;49.112;8.598;2023-04-28T08:17:46;12.50;91.30
46139;DHT22;32398;49.112;8.598;2023-04-28T08:20:13;12.60;91.30
46139;DHT22;32398;49.112;8.598;2023-04-28T08:22:43;12.50;91.30
46139;DHT22;32398;49.112;8.598;2023-04-28T08:25:10;12.50;91.50
46139;DHT22;32398;49.112;8.598;2023-04-28T08:27:36;12.50;91.90
46139;DHT22;32398;49.112;8.598;2023-04-28T08:30:05;12.50;92.20
46139;DHT22;32398;49.112;8.598;2023-04-28T08:32:33;12.50;92.40
46139;DHT22;32398;49.112;8.598;2023-04-28T08:34:59;12.50;92.60
46139;DHT22;32398;49.112;8.598;2023-04-28T08:37:26;12.50;92.60
46139;DHT22;32398;49.112;8.598;2023-04-28T08:39:52;12.50;92.60
46139;DHT22;32398;49.112;8.598;2023-04-28T08:42:27;12.50;92.60
46139;DHT22;32398;49.112;8.598;2023-04-28T08:44:54;12.50;92.50
46139;DHT22;32398;49.112;8.598;2023-04-28T08:47:24;12.50;92.40
46139;DHT22;32398;49.112;8.598;2023-04-28T08:49:53;12.50;92.40
46139;DHT22;32398;49.112;8.598;2023-04-28T08:52:21;12.50;92.50
46139;DHT22;32398;49.112;8.598;2023-04-28T08:54:49;12.60;92.60
46139;DHT22;32398;49.112;8.598;2023-04-28T08:57:16;12.60;92.60
46139;DHT22;32398;49.112;8.598;2023-04-28T08:59:43;12.60;92.70
46139;DHT22;32398;49.112;8.598;2023-04-28T09:02:10;12.50;92.60
46139;DHT22;32398;49.112;8.598;2023-04-28T09:04:36;12.50;92.70
46139;DHT22;32398;49.112;8.598;2023-04-28T09:07:04;12.60;93.10
46139;DHT22;32398;49.112;8.598;2023-04-28T09:09:35;12.60;93.40
46139;DHT22;32398;49.112;8.598;2023-04-28T09:12:02;12.60;93.60
46139;DHT22;32398;49.112;8.598;2023-04-28T09:14:29;12.60;93.90
46139;DHT22;32398;49.112;8.598;2023-04-28T09:16:57;12.60;94.10
46139;DHT22;32398;49.112;8.598;2023-04-28T09:19:24;12.60;94.30
46139;DHT22;32398;49.112;8.598;2023-04-28T09:21:57;12.60;94.50
46139;DHT22;32398;49.112;8.598;2023-04-28T09:24:26;12.70;94.70
46139;DHT22;32398;49.112;8.598;2023-04-28T09:26:53;12.70;94.80
46139;DHT22;32398;49.112;8.598;2023-04-28T09:29:20;12.70;95.10
46139;DHT22;32398;49.112;8.598;2023-04-28T09:31:46;12.70;95.40
46139;DHT22;32398;49.112;8.598;2023-04-28T09:34:13;12.70;95.70
46139;DHT22;32398;49.112;8.598;2023-04-28T09:36:39;12.80;96.00
46139;DHT22;32398;49.112;8.598;2023-04-28T09:39:06;12.80;96.20
46139;DHT22;32398;49.112;8.598;2023-04-28T09:41:37;12.80;96.50
46139;DHT22;32398;49.112;8.598;2023-04-28T09:44:14;12.80;96.70
46139;DHT22;32398;49.112;8.598;2023-04-28T09:46:41;12.90;96.80
46139;DHT22;32398;49.112;8.598;2023-04-28T09:49:09;13.00;97.10
46139;DHT22;32398;49.112;8.598;2023-04-28T09:51:35;13.00;97.20
46139;DHT22;32398;49.112;8.598;2023-04-28T09:54:02;13.00;97.30
46139;DHT22;32398;49.112;8.598;2023-04-28T09:56:29;13.00;97.40
46139;DHT22;32398;49.112;8.598;2023-04-28T09:58:57;13.00;97.30
46139;DHT22;32398;49.112;8.598;2023-04-28T10:01:24;13.00;97.20
46139;DHT22;32398;49.112;8.598;2023-04-28T10:03:52;13.10;97.20
46139;DHT22;32398;49.112;8.598;2023-04-28T10:06:19;13.10;97.10
46139;DHT22;32398;49.112;8.598;2023-04-28T10:08:46;13.20;97.20
46139;DHT22;32398;49.112;8.598;2023-04-28T10:11:14;13.20;97.20
46139;DHT22;32398;49.112;8.598;2023-04-28T10:13:41;13.20;97.30
46139;DHT22;32398;49.112;8.598;2023-04-28T10:16:09;13.20;97.20
46139;DHT22;32398;49.112;8.598;2023-04-28T10:18:36;13.30;97.00
46139;DHT22;32398;49.112;8.598;2023-04-28T10:21:03;13.30;97.10
46139;DHT22;32398;49.112;8.598;2023-04-28T10:23:54;13.40;97.60
46139;DHT22;32398;49.112;8.598;2023-04-28T10:26:26;13.40;97.90
46139;DHT22;32398;49.112;8.598;2023-04-28T10:28:57;13.40;98.20
46139;DHT22;32398;49.112;8.598;2023-04-28T10:33:52;13.50;98.60
46139;DHT22;32398;49.112;8.598;2023-04-28T10:39:07;13.60;98.60
46139;DHT22;32398;49.112;8.598;2023-04-28T10:41:34;13.60;98.40
46139;DHT22;32398;49.112;8.598;2023-04-28T10:44:00;13.60;98.50
46139;DHT22;32398;49.112;8.598;2023-04-28T10:46:59;13.70;98.50
46139;DHT22;32398;49.112;8.598;2023-04-28T10:57:33;13.70;97.80
46139;DHT22;32398;49.112;8.598;2023-04-28T11:02:42;13.70;98.30
46139;DHT22;32398;49.112;8.598;2023-04-28T11:05:12;13.80;98.70
46139;DHT22;32398;49.112;8.598;2023-04-28T11:07:38;13.80;98.90
46139;DHT22;32398;49.112;8.598;2023-04-28T11:10:05;13.70;98.90
46139;DHT22;32398;49.112;8.598;2023-04-28T11:12:33;13.80;98.80
46139;DHT22;32398;49.112;8.598;2023-04-28T11:15:10;13.80;98.80
46139;DHT22;32398;49.112;8.598;2023-04-28T11:17:38;13.80;98.90
46139;DHT22;32398;49.112;8.598;2023-04-28T11:20:05;13.80;98.90
46139;DHT22;32398;49.112;8.598;2023-04-28T11:22:33;13.80;99.00
46139;DHT22;32398;49.112;8.598;2023-04-28T11:25:00;13.90;99.30
46139;DHT22;32398;49.112;8.598;2023-04-28T11:27:28;13.90;99.70
46139;DHT22;32398;49.112;8.598;2023-04-28T11:29:56;13.90;99.70
46139;DHT22;32398;49.112;8.598;2023-04-28T11:32:26;13.90;99.90
46139;DHT22;32398;49.112;8.598;2023-04-28T11:34:53;13.90;99.90
46139;DHT22;32398;49.112;8.598;2023-04-28T11:37:20;13.90;99.90
46139;DHT22;32398;49.112;8.598;2023-04-28T11:39:47;14.00;99.90
46139;DHT22;32398;49.112;8.598;2023-04-28T11:42:13;14.00;99.90
46139;DHT22;32398;49.112;8.598;2023-04-28T11:44:41;14.00;99.90
46139;DHT22;32398;49.112;8.598;2023-04-28T11:47:15;14.00;99.90
46139;DHT22;32398;49.112;8.598;2023-04-28T11:49:42;14.10;99.90
46139;DHT22;32398;49.112;8.598;2023-04-28T11:52:10;14.10;99.90
46139;DHT22;32398;49.112;8.598;2023-04-28T11:54:37;14.10;99.90
46139;DHT22;32398;49.112;8.598;2023-04-28T11:57:04;14.10;99.90
46139;DHT22;32398;49.112;8.598;2023-04-28T11:59:31;14.10;99.90
46139;DHT22;32398;49.112;8.598;2023-04-28T12:01:58;14.10;99.90
46139;DHT22;32398;49.112;8.598;2023-04-28T12:04:27;14.20;99.90
46139;DHT22;32398;49.112;8.598;2023-04-28T12:06:58;14.10;99.90
46139;DHT22;32398;49.112;8.598;2023-04-28T12:09:24;14.10;99.90
46139;DHT22;32398;49.112;8.598;2023-04-28T12:11:51;14.10;99.90
46139;DHT22;32398;49.112;8.598;2023-04-28T12:14:18;14.20;99.90
46139;DHT22;32398;49.112;8.598;2023-04-28T12:16:45;14.20;99.90
46139;DHT22;32398;49.112;8.598;2023-04-28T12:19:13;14.20;99.90
46139;DHT22;32398;49.112;8.598;2023-04-28T12:21:42;14.30;99.90
46139;DHT22;32398;49.112;8.598;2023-04-28T12:24:12;14.30;99.90
46139;DHT22;32398;49.112;8.598;2023-04-28T12:26:39;14.30;99.90
46139;DHT22;32398;49.112;8.598;2023-04-28T12:29:05;14.30;99.90
46139;DHT22;32398;49.112;8.598;2023-04-28T12:31:46;14.40;99.90
46139;DHT22;32398;49.112;8.598;2023-04-28T12:34:12;14.40;99.90
46139;DHT22;32398;49.112;8.598;2023-04-28T12:36:41;14.40;99.90
46139;DHT22;32398;49.112;8.598;2023-04-28T12:39:13;14.50;99.90
46139;DHT22;32398;49.112;8.598;2023-04-28T12:41:43;14.50;99.90
46139;DHT22;32398;49.112;8.598;2023-04-28T12:44:09;14.50;99.90
46139;DHT22;32398;49.112;8.598;2023-04-28T12:46:36;14.50;99.90
46139;DHT22;32398;49.112;8.598;2023-04-28T12:49:02;14.60;99.90
46139;DHT22;32398;49.112;8.598;2023-04-28T12:51:29;14.50;99.90
46139;DHT22;32398;49.112;8.598;2023-04-28T12:53:57;14.60;99.90
46139;DHT22;32398;49.112;8.598;2023-04-28T12:56:24;14.60;99.90
46139;DHT22;32398;49.112;8.598;2023-04-28T12:58:51;14.60;99.90
46139;DHT22;32398;49.112;8.598;2023-04-28T13:01:17;14.60;99.90
46139;DHT22;32398;49.112;8.598;2023-04-28T13:03:44;14.60;99.90
46139;DHT22;32398;49.112;8.598;2023-04-28T13:06:11;14.60;99.90
46139;DHT22;32398;49.112;8.598;2023-04-28T13:08:38;14.60;99.90
46139;DHT22;32398;49.112;8.598;2023-04-28T13:11:06;14.70;99.90
46139;DHT22;32398;49.112;8.598;2023-04-28T13:13:33;14.70;99.90
46139;DHT22;32398;49.112;8.598;2023-04-28T13:15:59;14.70;99.90
46139;DHT22;32398;49.112;8.598;2023-04-28T13:18:26;14.80;99.90
46139;DHT22;32398;49.112;8.598;2023-04-28T13:20:52;14.80;99.90
46139;DHT22;32398;49.112;8.598;2023-04-28T13:23:19;14.80;99.90
46139;DHT22;32398;49.112;8.598;2023-04-28T13:25:45;14.90;99.90
46139;DHT22;32398;49.112;8.598;2023-04-28T13:28:13;14.90;99.90
46139;DHT22;32398;49.112;8.598;2023-04-28T13:30:40;14.90;99.90
46139;DHT22;32398;49.112;8.598;2023-04-28T13:33:06;15.00;99.90
46139;DHT22;32398;49.112;8.598;2023-04-28T13:35:33;15.00;99.90
46139;DHT22;32398;49.112;8.598;2023-04-28T13:37:59;15.00;99.90
46139;DHT22;32398;49.112;8.598;2023-04-28T13:40:26;15.10;99.90
46139;DHT22;32398;49.112;8.598;2023-04-28T13:42:53;15.10;99.90
46139;DHT22;32398;49.112;8.598;2023-04-28T13:45:21;15.10;99.90
46139;DHT22;32398;49.112;8.598;2023-04-28T13:47:48;15.10;99.90
46139;DHT22;32398;49.112;8.598;2023-04-28T13:50:15;15.10;99.90
46139;DHT22;32398;49.112;8.598;2023-04-28T13:52:42;15.10;99.90
46139;DHT22;32398;49.112;8.598;2023-04-28T13:55:08;15.10;99.90
46139;DHT22;32398;49.112;8.598;2023-04-28T13:57:35;15.10;99.90
46139;DHT22;32398;49.112;8.598;2023-04-28T14:00:02;15.10;99.90
46139;DHT22;32398;49.112;8.598;2023-04-28T14:02:30;15.20;99.90
46139;DHT22;32398;49.112;8.598;2023-04-28T14:04:57;15.20;99.90
46139;DHT22;32398;49.112;8.598;2023-04-28T14:07:24;15.20;99.90
46139;DHT22;32398;49.112;8.598;2023-04-28T14:09:50;15.20;99.90
46139;DHT22;32398;49.112;8.598;2023-04-28T14:12:17;15.20;99.90
46139;DHT22;32398;49.112;8.598;2023-04-28T14:14:45;15.20;99.90
46139;DHT22;32398;49.112;8.598;2023-04-28T14:17:13;15.20;99.90
46139;DHT22;32398;49.112;8.598;2023-04-28T14:19:40;15.30;99.90
46139;DHT22;32398;49.112;8.598;2023-04-28T14:22:07;15.30;99.90
46139;DHT22;32398;49.112;8.598;2023-04-28T14:24:33;15.30;99.90
46139;DHT22;32398;49.112;8.598;2023-04-28T14:27:00;15.30;99.90
46139;DHT22;32398;49.112;8.598;2023-04-28T14:29:26;15.30;99.90
46139;DHT22;32398;49.112;8.598;2023-04-28T14:31:53;15.40;99.90
46139;DHT22;32398;49.112;8.598;2023-04-28T14:34:20;15.40;99.90
46139;DHT22;32398;49.112;8.598;2023-04-28T14:36:48;15.40;99.90
46139;DHT22;32398;49.112;8.598;2023-04-28T14:39:14;15.40;99.90
46139;DHT22;32398;49.112;8.598;2023-04-28T14:41:41;15.50;99.90
46139;DHT22;32398;49.112;8.598;2023-04-28T14:44:07;15.50;99.90
46139;DHT22;32398;49.112;8.598;2023-04-28T14:46:34;15.50;99.90
46139;DHT22;32398;49.112;8.598;2023-04-28T14:49:01;15.50;99.90
46139;DHT22;32398;49.112;8.598;2023-04-28T14:51:28;15.60;99.90
46139;DHT22;32398;49.112;8.598;2023-04-28T14:53:55;15.60;99.90
46139;DHT22;32398;49.112;8.598;2023-04-28T14:56:22;15.60;99.90
46139;DHT22;32398;49.112;8.598;2023-04-28T14:58:49;15.60;99.90
46139;DHT22;32398;49.112;8.598;2023-04-28T15:01:15;15.70;99.90
46139;DHT22;32398;49.112;8.598;2023-04-28T15:03:42;15.70;99.90
46139;DHT22;32398;49.112;8.598;2023-04-28T15:06:09;15.70;99.90
46139;DHT22;32398;49.112;8.598;2023-04-28T15:08:36;15.70;99.90
46139;DHT22;32398;49.112;8.598;2023-04-28T15:11:05;15.80;99.90
46139;DHT22;32398;49.112;8.598;2023-04-28T15:13:32;15.80;99.90
46139;DHT22;32398;49.112;8.598;2023-04-28T15:15:59;15.80;99.90
46139;DHT22;32398;49.112;8.598;2023-04-28T15:18:26;15.90;99.90
46139;DHT22;32398;49.112;8.598;2023-04-28T15:20:53;15.90;99.90
46139;DHT22;32398;49.112;8.598;2023-04-28T15:23:19;15.90;99.90
46139;DHT22;32398;49.112;8.598;2023-04-28T15:25:46;15.90;99.90
46139;DHT22;32398;49.112;8.598;2023-04-28T15:28:18;16.00;99.90
46139;DHT22;32398;49.112;8.598;2023-04-28T15:30:44;16.00;99.90
46139;DHT22;32398;49.112;8.598;2023-04-28T15:33:11;16.00;99.90
46139;DHT22;32398;49.112;8.598;2023-04-28T15:35:41;16.00;99.90
46139;DHT22;32398;49.112;8.598;2023-04-28T15:38:08;16.00;99.90
46139;DHT22;32398;49.112;8.598;2023-04-28T15:40:36;16.00;99.90
46139;DHT22;32398;49.112;8.598;2023-04-28T15:43:03;16.00;99.90
46139;DHT22;32398;49.112;8.598;2023-04-28T15:45:31;16.00;99.90